Time;durP1;ratioP1;P1;durP2;ratioP2;P2;SDS_P1;SDS_P2;PMS_P1;PMS_P2;Temp;Humidity;BMP_temperature;BMP_pressure;BME280_temperature;BME280_humidity;BME280_pressure;Samples;Min_cycle;Max_cycle;Signal;HPM_P1;HPM_P2
2022/05/25 02:23:34;;;;;;;617.30;196.52;;;;;;;;;;5980463;24;20023;-94
2022/05/25 02:33:27;;;;;;;;;;;;;;;;;;;;;
2022/05/25 03:30:38;;;;;;;;;;;;;;;;;;;;;
2022/05/25 03:40:06;;;;;;;677.83;219.38;;;;;;;;;;6069948;23;20014;-93
2022/05/25 03:42:39;;;;;;;678.88;219.85;;;;;;;;;;6068535;23;20007;-95
2022/05/25 03:45:40;;;;;;;668.70;213.98;;;;;;;;;;6078983;23;20026;-93
2022/05/25 03:49:17;;;;;;;671.05;216.48;;;;;;;;;;6079102;23;20014;-93
2022/05/25 03:51:31;;;;;;;666.05;214.43;;;;;;;;;;6005323;23;20017;-91
2022/05/25 03:53:57;;;;;;;677.60;217.00;;;;;;;;;;6070140;23;20010;-90
2022/05/25 03:56:26;;;;;;;675.67;216.23;;;;;;;;;;6097512;23;19996;-91
2022/05/25 03:58:52;;;;;;;681.53;218.00;;;;;;;;;;6191677;23;20341;-94
2022/05/25 04:01:23;;;;;;;694.22;224.82;;;;;;;;;;6188432;23;20051;-92
2022/05/25 04:03:49;;;;;;;687.92;221.73;;;;;;;;;;6186221;23;20350;-91
2022/05/25 04:06:15;;;;;;;717.05;233.75;;;;;;;;;;6187250;23;20012;-92
2022/05/25 04:08:41;;;;;;;708.97;230.57;;;;;;;;;;6189053;23;20005;-91
2022/05/25 04:11:25;;;;;;;702.83;227.98;;;;;;;;;;6188933;23;20004;-92
2022/05/25 04:14:01;;;;;;;695.58;224.65;;;;;;;;;;6191473;23;20001;-92
2022/05/25 04:16:28;;;;;;;704.85;228.35;;;;;;;;;;6186544;23;20445;-89
2022/05/25 04:22:37;;;;;;;;;;;;;;;;;;;;;
2022/05/25 04:25:33;;;;;;;705.42;227.38;;;;;;;;;;6054743;23;20448;-91
2022/05/25 09:54:55;;;;;;;875.92;251.18;;;;;;;;;;5901131;24;20032;-92
2022/05/25 10:04:31;;;;;;;;;;;;;;;;;;;;;
2022/05/25 10:10:23;;;;;;;874.63;252.52;;;;;;;;;;5789119;24;20014;-93
2022/05/25 10:41:55;;;;;;;916.17;258.23;;;;;;;;;;5958563;24;20024;-95
2022/05/25 11:00:02;;;;;;;892.00;253.18;;;;;;;;;;5867836;24;20106;-93
2022/05/25 11:03:42;;;;;;;;;;;;;;;;;;;;;
2022/05/25 11:05:52;;;;;;;901.15;253.30;;;;;;;;;;5950977;24;20426;-93
2022/05/25 11:08:21;;;;;;;916.38;256.05;;;;;;;;;;5978854;24;20364;-93
2022/05/25 11:11:03;;;;;;;897.47;252.00;;;;;;;;;;6011441;23;20002;-93
2022/05/25 11:13:55;;;;;;;895.70;249.55;;;;;;;;;;6124521;23;20002;-91
2022/05/25 11:16:44;;;;;;;900.53;251.65;;;;;;;;;;6208183;23;20016;-91
2022/05/25 11:19:16;;;;;;;895.17;250.10;;;;;;;;;;6186139;23;20322;-91
2022/05/25 11:21:57;;;;;;;889.10;248.95;;;;;;;;;;6185338;23;20397;-92
2022/05/25 11:25:00;;;;;;;893.88;251.00;;;;;;;;;;6185966;23;20039;-93
2022/05/25 11:28:37;;;;;;;;;;;;;;;;;;;;;
2022/05/25 11:31:09;;;;;;;;;;;;;;;;;;;;;
2022/05/25 11:33:54;;;;;;;902.30;252.40;;;;;;;;;;6217919;23;20040;-92
2022/05/25 11:36:36;;;;;;;907.10;253.70;;;;;;;;;;6188019;23;20449;-95
2022/05/25 11:39:21;;;;;;;910.42;253.57;;;;;;;;;;6186558;23;20000;-91
2022/05/25 11:42:25;;;;;;;926.03;259.40;;;;;;;;;;6185567;23;20020;-91
2022/05/25 11:48:11;;;;;;;;;;;;;;;;;;;;;
2022/05/25 11:50:40;;;;;;;;;;;;;;;;;;6214035;23;20087;-93
2022/05/25 11:53:24;;;;;;;925.55;261.92;;;;;;;;;;6211034;23;19923;-93
2022/05/25 12:05:54;;;;;;;927.33;260.88;;;;;;;;;;6012257;23;20055;-93
2022/05/25 12:08:56;;;;;;;924.95;261.77;;;;;;;;;;6008883;23;20015;-92
2022/05/25 12:21:49;;;;;;;;;;;;;;;;;;;;;
2022/05/25 12:24:25;;;;;;;924.17;257.60;;;;;;;;;;6064253;23;20094;-92
2022/05/25 12:27:01;;;;;;;926.13;258.65;;;;;;;;;;6109775;23;20010;-90
2022/05/25 12:29:47;;;;;;;922.83;256.92;;;;;;;;;;6118834;23;20020;-92
2022/05/25 12:32:14;;;;;;;913.65;253.48;;;;;;;;;;6103514;23;20006;-91
2022/05/25 12:34:50;;;;;;;916.42;255.20;;;;;;;;;;6139089;23;20005;-90
2022/05/25 12:37:38;;;;;;;907.35;251.93;;;;;;;;;;6210796;23;20011;-91
2022/05/25 12:40:16;;;;;;;914.35;253.40;;;;;;;;;;6170419;23;20441;-93
2022/05/25 12:43:11;;;;;;;922.65;255.75;;;;;;;;;;6184453;23;20028;-92
2022/05/25 12:48:31;;;;;;;909.00;251.23;;;;;;;;;;6210865;23;20067;-92
2022/05/25 12:51:09;;;;;;;922.50;255.02;;;;;;;;;;6184546;23;20008;-94
2022/05/25 12:54:06;;;;;;;911.67;251.33;;;;;;;;;;6184355;23;20004;-93
2022/05/25 12:56:52;;;;;;;914.03;252.35;;;;;;;;;;6165534;23;20231;-92
2022/05/25 12:59:57;;;;;;;;;;;;;;;;;;;;;
2022/05/25 13:03:08;;;;;;;944.25;262.48;;;;;;;;;;6212841;23;20080;-92
2022/05/25 13:12:34;;;;;;;936.13;260.73;;;;;;;;;;6092023;23;20034;-92
2022/05/25 13:19:00;;;;;;;;;;;;;;;;;;;;;
2022/05/25 13:28:08;;;;;;;;;;;;;;;;;;;;;
2022/05/25 13:37:25;;;;;;;;;;;;;;;;;;;;;
2022/05/25 13:40:21;;;;;;;;;;;;;;;;;;;;;
2022/05/25 13:43:23;;;;;;;;;;;;;;;;;;;;;
2022/05/25 13:52:28;;;;;;;962.97;268.92;;;;;;;;;;5810617;24;20369;-94
2022/05/25 14:01:17;;;;;;;950.03;264.33;;;;;;;;;;5841678;24;20018;-92
2022/05/25 14:07:26;;;;;;;;;;;;;;;;;;;;;
2022/05/25 14:26:14;;;;;;;;;;;;;;;;;;;;;
2022/05/25 14:44:18;;;;;;;;;;;;;;;;;;;;;
2022/05/25 14:53:09;;;;;;;;;;;;;;;;;;;;;
2022/05/25 14:58:59;;;;;;;956.00;265.27;;;;;;;;;;6019993;23;20018;-93
2022/05/25 15:01:45;;;;;;;;;;;;;;;;;;;;;
2022/05/25 15:10:34;;;;;;;926.33;259.13;;;;;;;;;;6102153;23;20029;-91
2022/05/25 15:13:00;;;;;;;942.10;263.08;;;;;;;;;;6121540;23;20013;-91
2022/05/25 15:18:36;;;;;;;945.97;261.95;;;;;;;;;;6156115;23;20019;-91
2022/05/25 15:21:12;;;;;;;945.00;262.25;;;;;;;;;;6212042;23;20088;-88
2022/05/25 15:23:47;;;;;;;943.63;261.58;;;;;;;;;;6184995;23;20007;-91
2022/05/25 15:26:35;;;;;;;934.20;259.25;;;;;;;;;;6213007;23;20050;-93
2022/05/25 15:29:11;;;;;;;943.60;262.33;;;;;;;;;;6185649;23;20001;-92
2022/05/25 15:31:37;;;;;;;944.40;260.55;;;;;;;;;;6211226;23;20008;-91
2022/05/25 15:34:03;;;;;;;939.17;260.50;;;;;;;;;;6210987;23;20001;-90
2022/05/25 15:36:29;;;;;;;940.05;259.33;;;;;;;;;;6185305;23;20005;-91
2022/05/25 15:38:55;;;;;;;945.95;261.40;;;;;;;;;;6185371;23;20004;-91
2022/05/25 15:41:22;;;;;;;945.35;260.10;;;;;;;;;;6212092;23;20331;-90
2022/05/25 15:43:51;;;;;;;943.08;259.17;;;;;;;;;;6211554;23;20012;-90
2022/05/25 15:46:17;;;;;;;949.63;262.02;;;;;;;;;;6210949;23;20004;-91
2022/05/25 15:48:47;;;;;;;940.28;261.05;;;;;;;;;;6210383;23;20209;-90
2022/05/25 15:51:16;;;;;;;935.70;259.92;;;;;;;;;;6184395;23;20008;-91
2022/05/25 15:53:43;;;;;;;945.47;261.60;;;;;;;;;;6184601;23;20241;-90
2022/05/25 15:56:11;;;;;;;944.05;262.85;;;;;;;;;;6184915;23;20004;-92
2022/05/25 15:58:38;;;;;;;944.78;264.05;;;;;;;;;;6184622;23;20004;-91
2022/05/25 16:01:05;;;;;;;920.23;255.13;;;;;;;;;;6184751;23;20083;-90
2022/05/25 16:03:41;;;;;;;930.30;259.02;;;;;;;;;;6184116;23;20005;-92
2022/05/25 16:06:09;;;;;;;942.70;262.80;;;;;;;;;;6183822;23;20357;-90
2022/05/25 16:11:36;;;;;;;947.88;264.83;;;;;;;;;;6160458;23;20009;-89
2022/05/25 16:14:02;;;;;;;944.50;263.20;;;;;;;;;;6184300;23;20005;-92
2022/05/25 16:16:29;;;;;;;951.50;265.23;;;;;;;;;;6212583;23;20000;-90
2022/05/25 16:18:55;;;;;;;948.75;263.33;;;;;;;;;;6211246;23;20001;-90
2022/05/25 16:21:21;;;;;;;953.13;265.23;;;;;;;;;;6185309;23;20008;-90
2022/05/25 16:23:47;;;;;;;968.13;270.10;;;;;;;;;;6210498;23;20009;-90
2022/05/25 16:26:14;;;;;;;973.92;273.23;;;;;;;;;;6184983;23;20004;-90
2022/05/25 16:28:51;;;;;;;971.63;271.48;;;;;;;;;;6184441;23;20096;-89
2022/05/25 16:31:18;;;;;;;946.67;264.17;;;;;;;;;;6211128;23;20001;-90
2022/05/25 16:33:44;;;;;;;953.17;266.63;;;;;;;;;;6210675;23;19996;-89
2022/05/25 16:36:14;;;;;;;964.95;270.48;;;;;;;;;;6184544;23;20020;-92
2022/05/25 16:38:44;;;;;;;984.40;274.70;;;;;;;;;;6211176;23;20003;-91
2022/05/25 16:44:02;;;;;;;998.42;277.88;;;;;;;;;;6176240;23;20019;-90
2022/05/25 16:46:37;;;;;;;1002.15;278.45;;;;;;;;;;6213259;23;20058;-93
2022/05/25 16:49:31;;;;;;;1020.95;283.52;;;;;;;;;;6210840;23;20001;-91
2022/05/25 16:52:22;;;;;;;1043.88;289.15;;;;;;;;;;6184519;23;20035;-91
2022/05/25 16:54:47;;;;;;;1041.25;287.67;;;;;;;;;;6210531;23;20004;-91
2022/05/25 16:57:36;;;;;;;1034.10;287.40;;;;;;;;;;6210652;23;20435;-93
2022/05/25 17:00:04;;;;;;;1028.75;286.23;;;;;;;;;;6184801;23;20046;-91
2022/05/25 17:02:30;;;;;;;1039.15;289.38;;;;;;;;;;6187588;23;20009;-91
2022/05/25 17:05:05;;;;;;;1030.22;286.90;;;;;;;;;;6214719;23;20445;-91
2022/05/25 17:11:04;;;;;;;1069.25;298.13;;;;;;;;;;6122731;23;20013;-93
2022/05/25 17:13:30;;;;;;;1044.88;290.48;;;;;;;;;;6188258;23;20080;-89
2022/05/25 17:15:57;;;;;;;1037.95;288.23;;;;;;;;;;6184366;23;20341;-91
2022/05/25 17:18:23;;;;;;;1033.20;287.02;;;;;;;;;;6183759;23;20345;-91
2022/05/25 17:20:49;;;;;;;1045.80;289.88;;;;;;;;;;6209437;23;20017;-89
2022/05/25 17:23:22;;;;;;;1065.78;295.48;;;;;;;;;;6183660;23;20444;-93
2022/05/25 17:25:48;;;;;;;1087.03;300.70;;;;;;;;;;6210503;23;20326;-89
2022/05/25 17:28:14;;;;;;;1158.75;318.77;;;;;;;;;;6183293;23;20007;-90
2022/05/25 17:30:41;;;;;;;1160.43;321.05;;;;;;;;;;6183135;23;20036;-92
2022/05/25 17:33:33;;;;;;;1142.47;314.73;;;;;;;;;;6187024;23;20003;-93
2022/05/25 17:41:48;;;;;;;1140.18;318.05;;;;;;;;;;6210422;23;20036;-90
2022/05/25 17:44:15;;;;;;;1126.25;314.63;;;;;;;;;;6209326;23;20013;-92
2022/05/25 17:46:41;;;;;;;1101.73;308.10;;;;;;;;;;6182907;23;20032;-91
2022/05/25 17:49:10;;;;;;;1108.28;305.73;;;;;;;;;;6183799;23;20244;-90
2022/05/25 17:51:41;;;;;;;964.90;268.52;;;;;;;;;;6183550;23;20640;-92
2022/05/25 17:54:45;;;;;;;891.30;248.05;;;;;;;;;;6185593;23;20075;-92
2022/05/25 18:00:05;;;;;;;866.55;241.68;;;;;;;;;;6163790;23;20004;-90
2022/05/25 18:02:39;;;;;;;857.85;237.73;;;;;;;;;;6209571;23;20004;-91
2022/05/25 18:11:00;;;;;;;841.22;233.43;;;;;;;;;;6212572;23;20452;-93
2022/05/25 18:13:34;;;;;;;823.80;228.55;;;;;;;;;;6188131;23;20142;-91
2022/05/25 18:16:09;;;;;;;826.13;230.45;;;;;;;;;;6185732;23;20062;-92
2022/05/25 18:21:41;;;;;;;809.05;225.23;;;;;;;;;;6120399;23;20009;-91
2022/05/25 18:24:10;;;;;;;798.40;222.93;;;;;;;;;;6119414;23;20017;-91
2022/05/25 18:26:37;;;;;;;790.72;219.95;;;;;;;;;;6119547;23;20010;-91
2022/05/25 18:29:03;;;;;;;798.25;221.25;;;;;;;;;;6120129;23;20002;-90
2022/05/25 18:31:35;;;;;;;784.78;217.30;;;;;;;;;;6120611;23;20010;-91
2022/05/25 18:34:01;;;;;;;781.67;217.25;;;;;;;;;;6181600;23;20091;-91
2022/05/25 18:36:38;;;;;;;767.45;212.27;;;;;;;;;;6186210;23;20008;-91
2022/05/25 18:39:05;;;;;;;762.67;210.57;;;;;;;;;;6184971;23;20444;-91
2022/05/25 18:41:47;;;;;;;747.83;206.50;;;;;;;;;;6211338;23;20452;-92
2022/05/25 18:44:13;;;;;;;756.78;208.85;;;;;;;;;;6184880;23;20349;-93
2022/05/25 18:46:39;;;;;;;757.40;208.15;;;;;;;;;;6184707;23;20438;-89
2022/05/25 18:49:05;;;;;;;733.42;201.40;;;;;;;;;;6184730;23;20005;-92
2022/05/25 18:52:04;;;;;;;738.90;202.80;;;;;;;;;;6185069;23;20009;-92
2022/05/25 19:01:14;;;;;;;720.58;198.23;;;;;;;;;;5977390;24;20350;-91
2022/05/25 19:10:18;;;;;;;709.55;193.70;;;;;;;;;;5949438;24;20408;-93
2022/05/25 19:13:01;;;;;;;714.97;196.43;;;;;;;;;;5974802;24;20018;-92
2022/05/25 19:18:36;;;;;;;709.00;197.52;;;;;;;;;;6063524;23;20174;-94
2022/05/25 19:21:37;;;;;;;735.60;217.48;;;;;;;;;;6119976;23;20435;-91
2022/05/25 19:24:08;;;;;;;737.10;220.52;;;;;;;;;;6063685;23;20447;-92
2022/05/25 19:27:25;;;;;;;737.03;213.63;;;;;;;;;;6119651;23;20044;-90
2022/05/25 19:29:45;;;;;;;746.22;221.40;;;;;;;;;;6113761;23;20025;-92
2022/05/25 19:32:32;;;;;;;;;;;;;;;;;;6119558;23;20009;-91
2022/05/25 19:34:58;;;;;;;721.22;200.23;;;;;;;;;;6176612;23;19907;-90
2022/05/25 19:37:27;;;;;;;709.67;195.52;;;;;;;;;;6211598;23;20001;-91
2022/05/25 19:39:55;;;;;;;706.45;194.63;;;;;;;;;;6183120;23;20004;-92
2022/05/25 19:42:36;;;;;;;688.33;189.13;;;;;;;;;;6211238;23;20490;-88
2022/05/25 19:45:02;;;;;;;700.85;197.07;;;;;;;;;;6184077;23;20044;-90
2022/05/25 19:47:28;;;;;;;693.92;195.32;;;;;;;;;;6184823;23;20083;-89
2022/05/25 19:55:50;;;;;;;653.72;180.52;;;;;;;;;;6106477;23;20010;-91
2022/05/25 19:58:16;;;;;;;653.80;183.25;;;;;;;;;;6164304;23;20032;-90
2022/05/25 20:00:42;;;;;;;707.83;194.57;;;;;;;;;;6211383;23;20012;-89
2022/05/25 20:03:19;;;;;;;;;;;;;;;;;;;;;
2022/05/25 20:05:53;;;;;;;582.85;156.80;;;;;;;;;;6211729;23;20088;-91
2022/05/25 20:08:19;;;;;;;536.92;140.35;;;;;;;;;;6184407;23;20015;-92
2022/05/25 20:10:45;;;;;;;544.05;145.07;;;;;;;;;;6184275;23;20005;-92
2022/05/25 20:13:13;;;;;;;540.92;143.50;;;;;;;;;;6211135;23;20035;-92
2022/05/25 20:15:39;;;;;;;524.23;138.73;;;;;;;;;;6184597;23;20032;-92
2022/05/25 20:18:07;;;;;;;546.50;142.23;;;;;;;;;;6210917;23;20001;-91
2022/05/25 20:20:33;;;;;;;543.05;142.18;;;;;;;;;;6184283;23;20056;-93
2022/05/25 20:22:59;;;;;;;535.20;139.05;;;;;;;;;;6214407;23;20382;-91
2022/05/25 20:25:48;;;;;;;519.45;135.75;;;;;;;;;;6184294;23;20019;-93
2022/05/25 20:28:27;;;;;;;532.58;139.15;;;;;;;;;;6184897;23;20004;-92
2022/05/25 20:31:03;;;;;;;544.83;141.20;;;;;;;;;;6211427;23;20019;-93
2022/05/25 20:33:36;;;;;;;530.15;137.73;;;;;;;;;;6185713;23;20008;-93
2022/05/25 20:36:02;;;;;;;529.78;137.60;;;;;;;;;;6185691;23;20341;-92
2022/05/25 20:38:48;;;;;;;524.42;135.80;;;;;;;;;;6211765;23;20303;-93
2022/05/25 20:41:17;;;;;;;531.92;138.55;;;;;;;;;;6211173;23;20349;-92
2022/05/25 20:43:43;;;;;;;520.20;135.27;;;;;;;;;;6210824;23;20012;-94
2022/05/25 20:46:12;;;;;;;507.52;132.48;;;;;;;;;;6184323;23;20005;-93
2022/05/25 20:48:53;;;;;;;483.13;128.52;;;;;;;;;;6184144;23;20000;-92
2022/05/25 20:51:21;;;;;;;476.05;125.88;;;;;;;;;;6184062;23;20028;-92
2022/05/25 20:53:55;;;;;;;;;;;;;;;;;;6184888;23;20016;-93
2022/05/25 20:56:21;;;;;;;522.65;135.57;;;;;;;;;;6210089;23;19915;-93
2022/05/25 20:59:04;;;;;;;538.67;140.93;;;;;;;;;;6211110;23;20084;-93
2022/05/25 21:01:30;;;;;;;547.58;142.77;;;;;;;;;;6211540;23;20616;-92
2022/05/25 21:03:58;;;;;;;512.63;132.88;;;;;;;;;;6185031;23;20017;-93
2022/05/25 21:09:41;;;;;;;;;;;;;;;;;;;;;
2022/05/25 21:12:15;;;;;;;518.25;133.88;;;;;;;;;;6156550;22;20015;-93
2022/05/25 21:14:49;;;;;;;513.50;133.00;;;;;;;;;;6213125;23;20026;-91
2022/05/25 21:17:34;;;;;;;514.10;133.32;;;;;;;;;;6192952;23;20079;-93
2022/05/25 21:20:05;;;;;;;551.67;142.30;;;;;;;;;;6184145;23;20005;-92
2022/05/25 21:22:50;;;;;;;532.60;137.57;;;;;;;;;;6185121;23;20017;-90
2022/05/25 21:25:34;;;;;;;;;;;;;;;;;;;;;
2022/05/25 21:28:08;;;;;;;513.92;132.25;;;;;;;;;;6211908;23;20080;-92
2022/05/25 21:33:25;;;;;;;520.85;135.38;;;;;;;;;;6211014;23;20067;-90
2022/05/25 21:35:53;;;;;;;513.33;133.35;;;;;;;;;;6184595;23;20063;-91
2022/05/25 21:38:28;;;;;;;549.58;143.57;;;;;;;;;;6184164;23;20400;-91
2022/05/25 21:40:55;;;;;;;440.08;120.15;;;;;;;;;;6184430;23;20009;-90
2022/05/25 21:43:29;;;;;;;402.17;112.25;;;;;;;;;;6184626;23;20012;-91
2022/05/25 21:51:55;;;;;;;380.50;107.55;;;;;;;;;;6213644;23;20032;-94
2022/05/25 21:57:48;;;;;;;358.00;102.63;;;;;;;;;;6197348;23;20004;-92
2022/05/25 22:00:30;;;;;;;395.45;110.05;;;;;;;;;;6186323;23;20089;-93
2022/05/25 22:06:11;;;;;;;;;;;;;;;;;;;;;
2022/05/25 22:14:40;;;;;;;482.20;127.65;;;;;;;;;;6121402;23;20069;-94
2022/05/25 22:20:27;;;;;;;496.58;131.23;;;;;;;;;;6034593;23;20465;-93
2022/05/25 22:32:01;;;;;;;;;;;;;;;;;;;;;
2022/05/25 22:34:50;;;;;;;548.80;144.48;;;;;;;;;;6120842;23;20077;-93
2022/05/25 22:37:21;;;;;;;559.10;146.13;;;;;;;;;;6169839;23;20004;-93
2022/05/25 22:46:29;;;;;;;642.05;174.48;;;;;;;;;;6005516;23;20015;-93
2022/05/25 22:52:25;;;;;;;655.45;180.23;;;;;;;;;;6062790;23;20021;-94
2022/05/25 22:55:01;;;;;;;664.58;182.98;;;;;;;;;;6120298;23;20048;-94
2022/05/25 22:57:55;;;;;;;;;;;;;;;;;;;;;
2022/05/25 23:00:27;;;;;;;880.17;252.98;;;;;;;;;;6212808;23;20065;-93
2022/05/25 23:03:31;;;;;;;;;;;;;;;;;;;;;
2022/05/25 23:05:59;;;;;;;1011.60;299.83;;;;;;;;;;6204330;23;20008;-94
2022/05/25 23:08:25;;;;;;;1071.95;317.83;;;;;;;;;;6185530;23;20441;-93
2022/05/25 23:11:18;;;;;;;1144.50;340.13;;;;;;;;;;6212592;23;20000;-93
2022/05/25 23:13:58;;;;;;;1136.63;336.02;;;;;;;;;;6211034;23;20009;-92
2022/05/25 23:16:34;;;;;;;1102.85;323.80;;;;;;;;;;6185883;23;20001;-92
2022/05/25 23:25:23;;;;;;;;;;;;;;;;;;;;;
2022/05/25 23:31:20;;;;;;;;;;;;;;;;;;;;;
2022/05/25 23:37:16;;;;;;;639.13;169.18;;;;;;;;;;6179146;23;20047;-93
2022/05/25 23:40:03;;;;;;;586.00;148.48;;;;;;;;;;6212485;23;20008;-93
2022/05/25 23:46:04;;;;;;;615.13;157.35;;;;;;;;;;6211865;23;20031;-93
2022/05/25 23:49:00;;;;;;;695.63;183.55;;;;;;;;;;6211447;23;20421;-93
2022/05/25 23:51:57;;;;;;;743.15;199.70;;;;;;;;;;6185613;23;20008;-94
2022/05/25 23:57:33;;;;;;;777.05;211.60;;;;;;;;;;6149501;23;20077;-93
